createdAt,value
2023-05-02T00:00:11.366Z,33.24
2023-05-02T00:01:11.339Z,33.23
2023-05-02T00:02:11.433Z,33.27
2023-05-02T00:03:11.448Z,33.22
2023-05-02T00:04:11.479Z,33.20
2023-05-02T00:05:11.314Z,33.21
2023-05-02T00:06:11.362Z,33.21
2023-05-02T00:07:11.303Z,33.22
2023-05-02T00:08:11.280Z,33.21
2023-05-02T00:09:11.295Z,33.25
2023-05-02T00:10:11.286Z,33.24
2023-05-02T00:11:11.295Z,33.21
2023-05-02T00:12:11.296Z,33.22
2023-05-02T00:13:11.250Z,33.22
2023-05-02T00:14:11.291Z,33.23
2023-05-02T00:15:11.220Z,33.23
2023-05-02T00:16:11.330Z,33.26
2023-05-02T00:17:11.379Z,33.22
2023-05-02T00:18:11.273Z,33.23
2023-05-02T00:19:11.226Z,33.21
2023-05-02T00:20:11.210Z,33.21
2023-05-02T00:21:11.238Z,33.20
2023-05-02T00:22:11.176Z,33.20
2023-05-02T00:23:11.170Z,33.23
2023-05-02T00:24:11.202Z,33.26
2023-05-02T00:25:11.165Z,33.24
2023-05-02T00:26:11.168Z,33.24
2023-05-02T00:27:11.178Z,33.21
2023-05-02T00:28:11.159Z,33.23
2023-05-02T00:29:11.196Z,33.19
2023-05-02T00:30:11.171Z,33.22
2023-05-02T00:31:11.202Z,33.22
2023-05-02T00:32:11.281Z,33.26
2023-05-02T00:33:11.298Z,33.22
2023-05-02T00:34:11.173Z,33.23
2023-05-02T00:35:11.176Z,33.26
2023-05-02T00:36:11.165Z,33.29
2023-05-02T00:37:11.161Z,33.27
2023-05-02T00:38:11.148Z,33.22
2023-05-02T00:39:11.155Z,33.22
2023-05-02T00:40:11.151Z,33.22
2023-05-02T00:41:11.164Z,33.22
2023-05-02T00:42:11.225Z,33.27
2023-05-02T00:43:11.145Z,33.26
2023-05-02T00:44:11.169Z,33.23
2023-05-02T00:45:11.174Z,33.27
2023-05-02T00:46:11.213Z,33.24
2023-05-02T00:47:11.196Z,33.25
2023-05-02T00:48:11.296Z,33.22
2023-05-02T00:49:11.164Z,33.26
2023-05-02T00:50:11.162Z,33.30
2023-05-02T00:51:11.166Z,33.30
2023-05-02T00:52:11.195Z,33.26
2023-05-02T00:53:11.207Z,33.29
2023-05-02T00:54:11.157Z,33.24
2023-05-02T00:55:11.161Z,33.26
2023-05-02T00:56:11.178Z,33.27
2023-05-02T00:57:11.151Z,33.25
2023-05-02T00:58:11.150Z,33.27
2023-05-02T00:59:11.162Z,33.29
2023-05-02T01:00:11.171Z,33.28
2023-05-02T01:01:11.204Z,33.27
2023-05-02T01:02:11.266Z,33.28
2023-05-02T01:03:11.229Z,33.26
2023-05-02T01:04:11.256Z,33.26
2023-05-02T01:05:11.176Z,33.28
2023-05-02T01:06:11.173Z,33.24
2023-05-02T01:07:11.166Z,33.24
2023-05-02T01:08:11.167Z,33.26
2023-05-02T01:09:11.162Z,33.26
2023-05-02T01:10:11.134Z,33.27
2023-05-02T01:11:11.142Z,33.28
2023-05-02T01:12:11.100Z,33.25
2023-05-02T01:13:11.154Z,33.30
2023-05-02T01:14:11.122Z,33.26
2023-05-02T01:15:11.133Z,33.30
2023-05-02T01:16:11.213Z,33.29
2023-05-02T01:17:11.169Z,33.25
2023-05-02T01:18:11.216Z,33.24
2023-05-02T01:19:11.117Z,33.28
2023-05-02T01:20:11.202Z,33.25
2023-05-02T01:21:11.127Z,33.28
2023-05-02T01:22:11.160Z,33.28
2023-05-02T01:23:11.134Z,33.27
2023-05-02T01:24:11.118Z,33.27
2023-05-02T01:25:11.111Z,33.28
2023-05-02T01:26:11.128Z,33.31
2023-05-02T01:27:11.139Z,33.31
2023-05-02T01:28:11.152Z,33.30
2023-05-02T01:29:11.159Z,33.35
2023-05-02T01:30:11.165Z,33.31
2023-05-02T01:31:11.206Z,33.28
2023-05-02T01:32:11.144Z,33.29
2023-05-02T01:33:11.146Z,33.29
2023-05-02T01:34:11.138Z,33.27
2023-05-02T01:35:11.169Z,33.27
2023-05-02T01:36:11.150Z,33.31
2023-05-02T01:37:11.169Z,33.30
2023-05-02T01:38:11.228Z,33.29
2023-05-02T01:39:11.120Z,33.29
2023-05-02T01:40:11.123Z,33.31
2023-05-02T01:41:11.169Z,33.32
2023-05-02T01:42:11.171Z,33.31
2023-05-02T01:43:11.182Z,33.30
2023-05-02T01:44:11.163Z,33.28
2023-05-02T01:45:11.207Z,33.29
2023-05-02T01:46:11.253Z,33.33
2023-05-02T01:47:11.297Z,33.34
2023-05-02T01:48:11.285Z,33.33
2023-05-02T01:49:11.206Z,33.29
2023-05-02T01:50:11.214Z,33.35
2023-05-02T01:51:11.232Z,33.39
2023-05-02T01:52:11.234Z,33.33
2023-05-02T01:53:11.221Z,33.32
2023-05-02T01:54:11.252Z,33.33
2023-05-02T01:55:11.207Z,33.30
2023-05-02T01:56:11.244Z,33.31
2023-05-02T01:57:11.282Z,33.30
2023-05-02T01:58:11.248Z,33.36
2023-05-02T01:59:11.257Z,33.32
2023-05-02T02:00:11.280Z,33.32
2023-05-02T02:01:11.302Z,33.34
2023-05-02T02:02:11.281Z,33.32
2023-05-02T02:03:11.314Z,33.30
2023-05-02T02:04:11.455Z,33.35
2023-05-02T02:05:11.310Z,33.36
2023-05-02T02:06:11.359Z,33.34
2023-05-02T02:07:11.348Z,33.36
2023-05-02T02:08:11.337Z,33.37
2023-05-02T02:09:11.367Z,33.38
2023-05-02T02:10:11.337Z,33.38
2023-05-02T02:11:11.401Z,33.40
2023-05-02T02:12:11.369Z,33.42
2023-05-02T02:13:11.412Z,33.33
2023-05-02T02:14:11.419Z,33.30
2023-05-02T02:15:11.410Z,33.31
2023-05-02T02:16:11.472Z,33.36
2023-05-02T02:17:11.441Z,33.37
2023-05-02T02:18:11.493Z,33.32
2023-05-02T02:19:11.459Z,33.31
2023-05-02T02:20:11.472Z,33.32
2023-05-02T02:21:11.472Z,33.37
2023-05-02T02:22:11.496Z,33.37
2023-05-02T02:23:11.534Z,33.38
2023-05-02T02:24:11.557Z,33.35
2023-05-02T02:25:11.547Z,33.36
2023-05-02T02:26:11.542Z,33.34
2023-05-02T02:27:11.558Z,33.35
2023-05-02T02:28:11.579Z,33.34
2023-05-02T02:29:11.604Z,33.36
2023-05-02T02:30:11.575Z,33.32
2023-05-02T02:31:11.647Z,33.33
2023-05-02T02:32:11.605Z,33.31
2023-05-02T02:33:11.655Z,33.31
2023-05-02T02:34:11.616Z,33.30
2023-05-02T02:35:11.634Z,33.33
2023-05-02T02:36:11.650Z,33.33
2023-05-02T02:37:11.653Z,33.35
2023-05-02T02:38:11.627Z,33.37
2023-05-02T02:39:11.655Z,33.36
2023-05-02T02:40:11.700Z,33.35
2023-05-02T02:41:11.677Z,33.37
2023-05-02T02:42:11.681Z,33.34
2023-05-02T02:43:11.717Z,33.32
2023-05-02T02:44:13.475Z,33.41
2023-05-02T02:45:11.742Z,33.41
2023-05-02T02:46:11.784Z,33.35
2023-05-02T02:47:11.726Z,33.34
2023-05-02T02:48:11.810Z,33.40
2023-05-02T02:49:11.767Z,33.33
2023-05-02T02:50:11.795Z,33.35
2023-05-02T02:51:11.797Z,33.32
2023-05-02T02:52:11.816Z,33.39
2023-05-02T02:53:11.816Z,33.34
2023-05-02T02:54:25.345Z,33.35
2023-05-02T02:55:12.826Z,33.39
2023-05-02T02:56:11.812Z,33.39
2023-05-02T02:57:11.814Z,33.36
2023-05-02T02:58:11.776Z,33.40
2023-05-02T02:59:11.791Z,33.37
2023-05-02T03:00:11.868Z,33.35
2023-05-02T03:01:11.777Z,33.39
2023-05-02T03:02:11.809Z,33.34
2023-05-02T03:03:11.850Z,33.40
2023-05-02T03:04:11.841Z,33.33
2023-05-02T03:05:11.735Z,33.39
2023-05-02T03:06:11.736Z,33.41
2023-05-02T03:07:11.755Z,33.44
2023-05-02T03:08:11.711Z,33.40
2023-05-02T03:09:11.720Z,33.38
2023-05-02T03:10:11.699Z,33.39
2023-05-02T03:11:11.698Z,33.40
2023-05-02T03:12:11.673Z,33.38
2023-05-02T03:13:11.685Z,33.40
2023-05-02T03:14:11.698Z,33.35
2023-05-02T03:15:11.701Z,33.36
2023-05-02T03:16:11.701Z,33.42
2023-05-02T03:17:11.654Z,33.38
2023-05-02T03:18:11.763Z,33.37
2023-05-02T03:19:11.661Z,33.39
2023-05-02T03:20:11.629Z,33.34
2023-05-02T03:21:11.631Z,33.40
2023-05-02T03:22:11.628Z,33.39
2023-05-02T03:23:11.668Z,33.37
2023-05-02T03:24:11.707Z,33.36
2023-05-02T03:25:11.663Z,33.37
2023-05-02T03:26:11.722Z,33.38
2023-05-02T03:27:11.688Z,33.41
2023-05-02T03:28:11.710Z,33.37
2023-05-02T03:29:11.745Z,33.39
2023-05-02T03:30:11.789Z,33.36
2023-05-02T03:31:11.779Z,33.35
2023-05-02T03:32:11.850Z,33.37
2023-05-02T03:33:11.872Z,33.43
2023-05-02T03:34:11.778Z,33.40
2023-05-02T03:35:11.940Z,33.37
2023-05-02T03:36:11.847Z,33.43
2023-05-02T03:37:11.851Z,33.40
2023-05-02T03:38:11.870Z,33.35
2023-05-02T03:39:11.862Z,33.33
2023-05-02T03:40:11.867Z,33.34
2023-05-02T03:41:11.933Z,33.35
2023-05-02T03:42:11.928Z,33.41
2023-05-02T03:43:11.939Z,33.36
2023-05-02T03:44:11.962Z,33.41
2023-05-02T03:45:11.949Z,33.38
2023-05-02T03:46:12.049Z,33.34
2023-05-02T03:47:12.003Z,33.41
2023-05-02T03:48:12.199Z,33.39
2023-05-02T03:49:12.040Z,33.35
2023-05-02T03:50:12.061Z,33.33
2023-05-02T03:51:12.028Z,33.34
2023-05-02T03:52:12.050Z,33.40
2023-05-02T03:53:12.095Z,33.40
2023-05-02T03:54:12.099Z,33.40
2023-05-02T03:55:12.096Z,33.38
2023-05-02T03:56:12.183Z,33.41
2023-05-02T03:57:12.111Z,33.38
2023-05-02T03:58:12.163Z,33.41
2023-05-02T03:59:12.185Z,33.39
2023-05-02T04:00:12.237Z,33.38
2023-05-02T04:01:12.216Z,33.37
2023-05-02T04:02:12.239Z,33.41
2023-05-02T04:03:12.319Z,33.41
2023-05-02T04:04:12.271Z,33.43
2023-05-02T04:05:12.258Z,33.41
2023-05-02T04:06:12.260Z,33.37
2023-05-02T04:07:12.273Z,33.38
2023-05-02T04:08:12.296Z,33.34
2023-05-02T04:09:12.326Z,33.36
2023-05-02T04:10:12.360Z,33.36
2023-05-02T04:11:12.343Z,33.32
2023-05-02T04:12:12.381Z,33.33
2023-05-02T04:13:12.445Z,33.34
2023-05-02T04:14:12.482Z,33.32
2023-05-02T04:15:12.524Z,33.33
2023-05-02T04:16:12.638Z,33.33
2023-05-02T04:17:12.714Z,33.34
2023-05-02T04:18:12.663Z,33.33
2023-05-02T04:19:12.683Z,33.32
2023-05-02T04:20:12.758Z,33.31
2023-05-02T04:21:12.795Z,33.31
2023-05-02T04:22:12.829Z,33.30
2023-05-02T04:23:12.890Z,33.29
2023-05-02T04:24:12.947Z,33.27
2023-05-02T04:25:13.004Z,33.29
2023-05-02T04:26:13.060Z,33.30
2023-05-02T04:27:15.154Z,33.32
2023-05-02T04:28:13.154Z,33.31
2023-05-02T04:29:13.198Z,33.31
2023-05-02T04:30:13.250Z,33.27
2023-05-02T04:31:13.418Z,33.26
2023-05-02T04:32:13.355Z,33.26
2023-05-02T04:33:13.509Z,33.27
2023-05-02T04:34:13.451Z,33.28
2023-05-02T04:35:13.516Z,33.28
2023-05-02T04:36:13.594Z,33.27
2023-05-02T04:37:13.628Z,33.28
2023-05-02T04:38:13.650Z,33.26
2023-05-02T04:39:13.707Z,33.29
2023-05-02T04:40:13.743Z,33.27
2023-05-02T04:41:13.828Z,33.25
2023-05-02T04:42:13.839Z,33.24
2023-05-02T04:43:13.882Z,33.22
2023-05-02T04:44:13.904Z,33.20
2023-05-02T04:45:13.951Z,33.22
2023-05-02T04:46:14.046Z,33.21
2023-05-02T04:47:14.029Z,33.18
2023-05-02T04:48:14.155Z,33.20
2023-05-02T04:49:14.104Z,33.19
2023-05-02T04:50:14.141Z,33.19
2023-05-02T04:51:16.806Z,33.18
2023-05-02T04:52:14.148Z,33.17
2023-05-02T04:53:14.152Z,33.18
2023-05-02T04:54:14.152Z,33.18
2023-05-02T04:55:14.187Z,33.17
2023-05-02T04:56:14.150Z,33.17
2023-05-02T04:57:14.091Z,33.16
2023-05-02T04:58:14.144Z,33.16
2023-05-02T04:59:14.176Z,33.14
2023-05-02T05:00:14.104Z,33.12
2023-05-02T05:01:14.121Z,33.16
2023-05-02T05:02:14.188Z,33.12
2023-05-02T05:03:14.193Z,33.13
2023-05-02T05:04:14.285Z,33.11
2023-05-02T05:05:14.110Z,33.09
2023-05-02T05:06:14.092Z,33.14
2023-05-02T05:07:14.137Z,33.13
2023-05-02T05:08:14.043Z,33.12
2023-05-02T05:09:14.054Z,33.08
2023-05-02T05:10:14.025Z,33.11
2023-05-02T05:11:14.072Z,33.09
2023-05-02T05:12:14.057Z,33.11
2023-05-02T05:13:14.132Z,33.10
2023-05-02T05:14:14.061Z,33.09
2023-05-02T05:15:13.980Z,33.09
2023-05-02T05:16:14.040Z,33.08
2023-05-02T05:17:13.993Z,33.07
2023-05-02T05:18:14.065Z,33.06
2023-05-02T05:19:13.983Z,33.09
2023-05-02T05:20:13.995Z,33.10
2023-05-02T05:21:14.000Z,33.06
2023-05-02T05:22:13.948Z,33.09
2023-05-02T05:23:13.951Z,33.07
2023-05-02T05:24:13.952Z,33.10
2023-05-02T05:25:13.921Z,33.08
2023-05-02T05:26:13.920Z,33.08
2023-05-02T05:27:13.931Z,33.11
2023-05-02T05:28:13.945Z,33.10
2023-05-02T05:29:13.921Z,33.09
2023-05-02T05:30:13.896Z,33.08
2023-05-02T05:31:16.603Z,33.09
2023-05-02T05:32:13.981Z,33.10
2023-05-02T05:33:14.015Z,33.08
2023-05-02T05:34:13.922Z,33.31
2023-05-02T05:35:13.899Z,33.43
2023-05-02T05:36:13.892Z,33.61
2023-05-02T05:37:13.861Z,33.92
2023-05-02T05:38:13.850Z,34.13
2023-05-02T05:39:13.860Z,34.47
2023-05-02T05:40:13.819Z,34.97
2023-05-02T05:41:13.827Z,35.18
2023-05-02T05:42:13.883Z,35.54
2023-05-02T05:43:13.794Z,35.53
2023-05-02T05:44:13.816Z,35.40
2023-05-02T05:45:13.801Z,35.60
2023-05-02T05:46:13.802Z,35.52
2023-05-02T05:47:13.823Z,36.08
2023-05-02T05:48:13.807Z,35.84
2023-05-02T05:49:13.769Z,35.79
2023-05-02T05:50:13.802Z,35.84
2023-05-02T05:51:13.797Z,35.92
2023-05-02T05:52:13.752Z,35.84
2023-05-02T05:53:13.741Z,35.85
2023-05-02T05:54:13.736Z,35.78
2023-05-02T05:55:13.764Z,35.77
2023-05-02T05:56:13.721Z,35.63
2023-05-02T05:57:13.729Z,35.58
2023-05-02T05:58:13.710Z,35.63
2023-05-02T05:59:13.748Z,35.55
2023-05-02T06:00:13.697Z,35.51
2023-05-02T06:01:13.687Z,35.52
2023-05-02T06:02:13.715Z,35.54
2023-05-02T06:03:13.796Z,35.47
2023-05-02T06:04:14.036Z,35.54
2023-05-02T06:05:13.732Z,35.52
2023-05-02T06:06:13.735Z,35.52
2023-05-02T06:07:13.685Z,35.46
2023-05-02T06:08:13.654Z,35.40
2023-05-02T06:09:13.671Z,35.49
2023-05-02T06:10:13.899Z,35.54
2023-05-02T06:11:13.622Z,35.73
2023-05-02T06:12:13.625Z,35.78
2023-05-02T06:13:13.633Z,35.83
2023-05-02T06:14:13.679Z,35.76
2023-05-02T06:15:13.567Z,35.74
2023-05-02T06:16:13.638Z,35.71
2023-05-02T06:17:13.608Z,35.65
2023-05-02T06:18:13.616Z,35.86
2023-05-02T06:19:13.579Z,35.65
2023-05-02T06:20:13.580Z,35.59
2023-05-02T06:21:13.594Z,35.68
2023-05-02T06:22:14.322Z,35.59
2023-05-02T06:23:13.549Z,35.56
2023-05-02T06:24:13.536Z,35.54
2023-05-02T06:25:13.511Z,35.53
2023-05-02T06:26:13.517Z,35.46
2023-05-02T06:27:13.565Z,35.59
2023-05-02T06:28:13.489Z,35.59
2023-05-02T06:29:13.546Z,35.46
2023-05-02T06:30:13.479Z,35.41
2023-05-02T06:31:13.565Z,35.42
2023-05-02T06:32:13.477Z,35.44
2023-05-02T06:33:13.521Z,35.36
2023-05-02T06:34:13.479Z,35.35
2023-05-02T06:35:14.365Z,35.31
2023-05-02T06:36:13.534Z,35.28
2023-05-02T06:37:13.969Z,35.36
2023-05-02T06:38:13.621Z,35.24
2023-05-02T06:39:13.727Z,35.24
2023-05-02T06:40:13.872Z,35.19
2023-05-02T06:41:15.279Z,35.38
2023-05-02T06:42:13.912Z,35.50
2023-05-02T06:43:13.892Z,35.56
2023-05-02T06:44:13.839Z,35.56
2023-05-02T06:45:13.793Z,35.54
2023-05-02T06:46:13.902Z,35.78
2023-05-02T06:47:13.965Z,35.78
2023-05-02T06:48:13.815Z,35.76
2023-05-02T06:49:13.780Z,35.91
2023-05-02T06:50:13.743Z,36.03
2023-05-02T06:51:13.732Z,36.12
2023-05-02T06:52:13.741Z,36.08
2023-05-02T06:53:13.730Z,36.10
2023-05-02T06:54:13.748Z,36.00
2023-05-02T06:55:13.709Z,36.26
2023-05-02T06:56:14.059Z,36.19
2023-05-02T06:57:13.700Z,36.25
2023-05-02T06:58:13.699Z,36.17
2023-05-02T06:59:13.707Z,36.09
2023-05-02T07:00:13.704Z,36.23
2023-05-02T07:01:13.696Z,36.04
2023-05-02T07:02:13.653Z,36.00
2023-05-02T07:03:13.761Z,36.08
2023-05-02T07:04:13.794Z,36.00
2023-05-02T07:05:13.658Z,35.99
2023-05-02T07:06:13.733Z,35.97
2023-05-02T07:07:13.712Z,36.22
2023-05-02T07:08:13.640Z,36.00
2023-05-02T07:09:13.686Z,35.96
2023-05-02T07:10:13.877Z,36.01
2023-05-02T07:11:13.693Z,36.09
2023-05-02T07:12:13.637Z,36.05
2023-05-02T07:13:13.629Z,36.04
2023-05-02T07:14:13.587Z,36.16
2023-05-02T07:15:13.648Z,36.14
2023-05-02T07:16:13.890Z,36.23
2023-05-02T07:17:13.871Z,35.95
2023-05-02T07:18:13.912Z,36.02
2023-05-02T07:19:13.614Z,36.03
2023-05-02T07:20:13.610Z,36.06
2023-05-02T07:21:13.642Z,35.87
2023-05-02T07:22:13.542Z,35.91
2023-05-02T07:23:13.909Z,35.84
2023-05-02T07:24:13.923Z,35.85
2023-05-02T07:25:13.537Z,35.89
2023-05-02T07:26:13.519Z,35.84
2023-05-02T07:27:13.529Z,35.86
2023-05-02T07:28:13.948Z,35.94
2023-05-02T07:29:14.379Z,36.14
2023-05-02T07:30:13.931Z,36.22
2023-05-02T07:31:13.572Z,36.12
2023-05-02T07:32:13.946Z,36.48
2023-05-02T07:33:13.666Z,36.61
2023-05-02T07:34:13.716Z,36.67
2023-05-02T07:35:13.725Z,37.05
2023-05-02T07:36:13.736Z,37.21
2023-05-02T07:37:13.912Z,37.10
2023-05-02T07:38:13.779Z,37.26
2023-05-02T07:39:13.826Z,37.41
2023-05-02T07:40:13.872Z,37.25
2023-05-02T07:41:13.855Z,37.47
2023-05-02T07:42:14.406Z,37.46
2023-05-02T07:43:13.913Z,37.69
2023-05-02T07:44:13.947Z,37.46
2023-05-02T07:45:14.002Z,37.59
2023-05-02T07:46:14.014Z,37.67
2023-05-02T07:47:14.388Z,37.70
2023-05-02T07:48:14.122Z,37.77
2023-05-02T07:49:14.391Z,37.66
2023-05-02T07:50:14.045Z,37.65
2023-05-02T07:51:14.043Z,37.68
2023-05-02T07:52:14.031Z,37.67
2023-05-02T07:53:14.072Z,37.82
2023-05-02T07:54:14.060Z,37.71
2023-05-02T07:55:14.037Z,37.74
2023-05-02T07:56:14.038Z,37.78
2023-05-02T07:57:14.055Z,37.94
2023-05-02T07:58:14.072Z,37.90
2023-05-02T07:59:14.054Z,37.90
2023-05-02T08:00:14.080Z,37.94
2023-05-02T08:01:14.068Z,37.71
2023-05-02T08:02:14.321Z,37.72
2023-05-02T08:03:14.112Z,37.78
2023-05-02T08:04:14.676Z,37.69
2023-05-02T08:05:14.132Z,37.61
2023-05-02T08:06:14.166Z,37.60
2023-05-02T08:07:14.641Z,37.71
2023-05-02T08:08:14.177Z,37.71
2023-05-02T08:09:14.274Z,37.64
2023-05-02T08:10:14.333Z,37.61
2023-05-02T08:11:14.398Z,37.69
2023-05-02T08:12:14.489Z,37.60
2023-05-02T08:13:14.514Z,37.42
2023-05-02T08:14:14.575Z,37.49
2023-05-02T08:15:14.650Z,37.45
2023-05-02T08:16:14.774Z,37.48
2023-05-02T08:17:14.811Z,37.47
2023-05-02T08:18:14.964Z,37.60
2023-05-02T08:19:14.936Z,37.75
2023-05-02T08:20:14.950Z,37.75
2023-05-02T08:21:14.965Z,37.55
2023-05-02T08:22:15.442Z,37.53
2023-05-02T08:23:15.465Z,37.48
2023-05-02T08:24:15.201Z,37.38
2023-05-02T08:25:15.191Z,37.45
2023-05-02T08:26:15.266Z,37.53
2023-05-02T08:27:15.318Z,37.60
2023-05-02T08:28:15.338Z,37.20
2023-05-02T08:29:15.941Z,36.64
2023-05-02T08:30:15.723Z,36.17
2023-05-02T08:31:15.566Z,35.96
2023-05-02T08:32:15.727Z,35.91
2023-05-02T08:33:15.761Z,35.70
2023-05-02T08:34:15.663Z,35.55
2023-05-02T08:35:15.679Z,35.43
2023-05-02T08:36:15.717Z,35.50
2023-05-02T08:37:15.691Z,35.61
2023-05-02T08:38:15.692Z,35.61
2023-05-02T08:39:15.720Z,35.49
2023-05-02T08:40:16.033Z,35.15
2023-05-02T08:41:20.135Z,35.65
2023-05-02T08:42:15.689Z,35.67
2023-05-02T08:43:15.981Z,35.65
2023-05-02T08:44:15.692Z,35.87
2023-05-02T08:45:16.662Z,35.91
2023-05-02T08:46:16.569Z,35.96
2023-05-02T08:47:15.733Z,35.94
2023-05-02T08:48:15.727Z,36.02
2023-05-02T08:49:15.627Z,35.96
2023-05-02T08:50:15.668Z,35.98
2023-05-02T08:51:15.633Z,35.97
2023-05-02T08:52:15.600Z,36.01
2023-05-02T08:53:15.646Z,35.93
2023-05-02T08:54:15.671Z,35.94
2023-05-02T08:55:15.608Z,35.90
2023-05-02T08:56:15.607Z,35.87
2023-05-02T08:57:15.623Z,35.83
2023-05-02T08:58:17.595Z,35.81
2023-05-02T08:59:15.602Z,35.73
2023-05-02T09:00:15.558Z,35.68
2023-05-02T09:01:15.863Z,35.65
2023-05-02T09:02:15.599Z,35.69
2023-05-02T09:03:15.603Z,35.66
2023-05-02T09:04:15.983Z,35.69
2023-05-02T09:05:15.738Z,35.66
2023-05-02T09:06:15.762Z,35.62
2023-05-02T09:07:15.782Z,35.66
2023-05-02T09:08:15.806Z,35.62
2023-05-02T09:09:18.457Z,35.59
2023-05-02T09:10:15.878Z,35.65
2023-05-02T09:11:15.822Z,35.53
2023-05-02T09:12:15.879Z,35.48
2023-05-02T09:13:15.933Z,35.59
2023-05-02T09:14:15.835Z,35.54
2023-05-02T09:15:17.690Z,35.58
2023-05-02T09:16:15.857Z,35.62
2023-05-02T09:17:15.964Z,35.63
2023-05-02T09:18:15.790Z,35.53
2023-05-02T09:19:15.846Z,35.51
2023-05-02T09:20:16.074Z,35.49
2023-05-02T09:21:18.070Z,35.39
2023-05-02T09:22:15.785Z,35.46
2023-05-02T09:23:15.758Z,35.42
2023-05-02T09:24:15.764Z,35.39
2023-05-02T09:25:15.761Z,35.38
2023-05-02T09:26:15.742Z,35.41
2023-05-02T09:27:15.790Z,35.37
2023-05-02T09:28:15.955Z,35.24
2023-05-02T09:29:15.725Z,35.35
2023-05-02T09:30:15.945Z,35.36
2023-05-02T09:31:22.951Z,35.22
2023-05-02T09:32:17.048Z,34.77
2023-05-02T09:33:17.510Z,34.63
2023-05-02T09:34:15.943Z,34.55
2023-05-02T09:35:15.781Z,34.38
2023-05-02T09:36:15.853Z,34.65
2023-05-02T09:37:15.884Z,35.09
2023-05-02T09:38:15.963Z,35.40
2023-05-02T09:39:16.042Z,35.40
2023-05-02T09:40:16.443Z,35.43
2023-05-02T09:41:16.126Z,35.49
2023-05-02T09:42:16.191Z,35.48
2023-05-02T09:43:16.217Z,35.54
2023-05-02T09:44:16.298Z,35.51
2023-05-02T09:45:16.309Z,35.57
2023-05-02T09:46:16.435Z,35.57
2023-05-02T09:47:16.430Z,35.58
2023-05-02T09:48:16.945Z,35.54
2023-05-02T09:49:16.814Z,35.52
2023-05-02T09:50:16.563Z,35.53
2023-05-02T09:51:16.561Z,35.41
2023-05-02T09:52:16.583Z,35.41
2023-05-02T09:53:16.600Z,35.45
2023-05-02T09:54:16.880Z,35.40
2023-05-02T09:55:16.647Z,35.33
2023-05-02T09:56:16.636Z,35.27
2023-05-02T09:57:16.661Z,35.25
2023-05-02T09:58:16.671Z,35.23
2023-05-02T09:59:16.652Z,35.20
2023-05-02T10:00:16.694Z,35.14
2023-05-02T10:01:16.769Z,35.14
2023-05-02T10:02:16.676Z,34.97
2023-05-02T10:03:16.738Z,34.90
2023-05-02T10:04:16.770Z,35.00
2023-05-02T10:05:16.714Z,35.01
2023-05-02T10:06:16.726Z,35.08
2023-05-02T10:07:16.718Z,35.12
2023-05-02T10:08:16.932Z,35.09
2023-05-02T10:09:20.492Z,35.08
2023-05-02T10:10:16.696Z,35.10
2023-05-02T10:11:16.681Z,35.08
2023-05-02T10:12:16.903Z,35.11
2023-05-02T10:13:16.700Z,35.09
2023-05-02T10:14:16.692Z,34.97
2023-05-02T10:15:16.670Z,34.97
2023-05-02T10:16:16.718Z,34.97
2023-05-02T10:17:16.664Z,35.03
2023-05-02T10:18:16.701Z,35.07
2023-05-02T10:19:16.656Z,35.04
2023-05-02T10:20:16.744Z,35.06
2023-05-02T10:21:16.653Z,35.03
2023-05-02T10:22:16.685Z,35.06
2023-05-02T10:23:16.694Z,35.11
2023-05-02T10:24:16.730Z,35.18
2023-05-02T10:25:16.760Z,35.25
2023-05-02T10:26:16.857Z,35.20
2023-05-02T10:27:16.977Z,35.24
2023-05-02T10:28:16.935Z,35.33
2023-05-02T10:29:16.985Z,35.03
2023-05-02T10:30:17.062Z,34.69
2023-05-02T10:31:17.134Z,34.27
2023-05-02T10:32:17.157Z,34.71
2023-05-02T10:33:17.171Z,34.66
2023-05-02T10:34:17.158Z,34.86
2023-05-02T10:35:17.215Z,34.93
2023-05-02T10:36:17.239Z,35.02
2023-05-02T10:37:17.226Z,35.17
2023-05-02T10:38:17.257Z,34.96
2023-05-02T10:39:17.317Z,35.04
2023-05-02T10:40:17.371Z,35.21
2023-05-02T10:41:17.458Z,35.06
2023-05-02T10:42:17.525Z,35.02
2023-05-02T10:43:17.584Z,35.00
2023-05-02T10:44:17.638Z,34.99
2023-05-02T10:45:17.687Z,35.02
2023-05-02T10:46:17.759Z,35.01
2023-05-02T10:47:17.805Z,35.18
2023-05-02T10:48:17.808Z,35.04
2023-05-02T10:49:17.909Z,35.18
2023-05-02T10:50:17.989Z,35.33
2023-05-02T10:51:17.993Z,35.28
2023-05-02T10:52:18.073Z,35.25
2023-05-02T10:53:18.130Z,35.25
2023-05-02T10:54:18.199Z,35.19
2023-05-02T10:55:18.226Z,35.19
2023-05-02T10:56:18.284Z,35.16
2023-05-02T10:57:18.332Z,35.19
2023-05-02T10:58:18.447Z,35.23
2023-05-02T10:59:18.443Z,35.16
2023-05-02T11:00:18.513Z,35.36
2023-05-02T11:01:18.619Z,35.31
2023-05-02T11:02:18.656Z,35.29
2023-05-02T11:03:18.676Z,35.23
2023-05-02T11:04:18.696Z,35.19
2023-05-02T11:05:18.771Z,35.25
2023-05-02T11:06:18.847Z,35.18
2023-05-02T11:07:18.882Z,35.32
2023-05-02T11:08:21.220Z,35.40
2023-05-02T11:09:18.935Z,35.30
2023-05-02T11:10:18.905Z,35.27
2023-05-02T11:11:18.895Z,35.17
2023-05-02T11:12:19.082Z,35.02
2023-05-02T11:13:18.984Z,35.15
2023-05-02T11:14:19.828Z,35.09
2023-05-02T11:15:18.880Z,35.18
2023-05-02T11:16:18.906Z,34.88
2023-05-02T11:17:18.833Z,34.99
2023-05-02T11:18:18.850Z,34.97
2023-05-02T11:19:18.817Z,34.80
2023-05-02T11:20:18.842Z,34.81
2023-05-02T11:21:19.026Z,34.90
2023-05-02T11:22:18.826Z,34.74
2023-05-02T11:23:18.981Z,34.56
2023-05-02T11:24:18.839Z,34.42
2023-05-02T11:25:18.956Z,34.28
2023-05-02T11:26:18.838Z,34.12
2023-05-02T11:27:18.773Z,33.97
2023-05-02T11:28:18.797Z,33.86
2023-05-02T11:29:18.765Z,33.81
2023-05-02T11:30:18.773Z,33.76
2023-05-02T11:31:18.798Z,33.77
2023-05-02T11:32:18.938Z,33.62
2023-05-02T11:33:18.974Z,33.57
2023-05-02T11:34:18.962Z,33.44
2023-05-02T11:35:19.031Z,33.35
2023-05-02T11:36:19.009Z,33.38
2023-05-02T11:37:19.019Z,33.29
2023-05-02T11:38:19.019Z,33.24
2023-05-02T11:39:19.039Z,33.22
2023-05-02T11:40:19.097Z,33.20
2023-05-02T11:41:19.035Z,33.09
2023-05-02T11:42:19.155Z,33.07
2023-05-02T11:43:19.084Z,33.11
2023-05-02T11:44:19.072Z,33.01
2023-05-02T11:45:19.140Z,33.04
2023-05-02T11:46:19.147Z,32.95
2023-05-02T11:47:19.156Z,32.92
2023-05-02T11:48:19.117Z,32.94
2023-05-02T11:49:19.157Z,32.88
2023-05-02T11:50:19.188Z,32.75
2023-05-02T11:51:19.237Z,32.76
2023-05-02T11:52:19.173Z,32.71
2023-05-02T11:53:19.211Z,32.68
2023-05-02T11:54:19.203Z,32.65
2023-05-02T11:55:19.204Z,32.59
2023-05-02T11:56:19.205Z,32.64
2023-05-02T11:57:19.225Z,32.66
2023-05-02T11:58:19.234Z,32.71
2023-05-02T11:59:19.286Z,32.68
2023-05-02T12:00:19.267Z,32.70
2023-05-02T12:01:19.251Z,32.76
2023-05-02T12:02:19.332Z,32.78
2023-05-02T12:03:19.361Z,32.85
2023-05-02T12:04:19.289Z,32.83
2023-05-02T12:05:19.309Z,32.79
2023-05-02T12:06:20.052Z,32.82
2023-05-02T12:07:19.288Z,32.80
2023-05-02T12:08:19.304Z,32.83
2023-05-02T12:09:19.347Z,32.82
2023-05-02T12:10:19.304Z,32.78
2023-05-02T12:11:19.291Z,32.77
2023-05-02T12:12:19.262Z,32.81
2023-05-02T12:13:19.258Z,32.78
2023-05-02T12:14:19.270Z,32.79
2023-05-02T12:15:19.283Z,32.79
2023-05-02T12:16:19.506Z,32.82
2023-05-02T12:17:19.256Z,32.85
2023-05-02T12:18:21.961Z,32.84
2023-05-02T12:19:19.280Z,32.84
2023-05-02T12:20:19.257Z,32.88
2023-05-02T12:21:19.223Z,32.86
2023-05-02T12:22:19.230Z,32.91
2023-05-02T12:23:19.266Z,32.91
2023-05-02T12:24:19.240Z,32.95
2023-05-02T12:25:19.241Z,32.93
2023-05-02T12:26:19.297Z,32.96
2023-05-02T12:27:19.274Z,32.95
2023-05-02T12:28:19.213Z,33.00
2023-05-02T12:29:19.153Z,33.03
2023-05-02T12:30:19.227Z,33.02
2023-05-02T12:31:19.256Z,33.02
2023-05-02T12:32:19.178Z,33.02
2023-05-02T12:33:19.210Z,33.01
2023-05-02T12:34:19.228Z,33.03
2023-05-02T12:35:19.170Z,33.03
2023-05-02T12:36:19.306Z,33.03
2023-05-02T12:37:19.122Z,33.01
2023-05-02T12:38:19.117Z,33.02
2023-05-02T12:39:19.133Z,33.03
2023-05-02T12:40:19.099Z,33.05
2023-05-02T12:41:19.136Z,33.03
2023-05-02T12:42:19.130Z,33.05
2023-05-02T12:43:19.104Z,33.05
2023-05-02T12:44:19.156Z,33.07
2023-05-02T12:45:19.154Z,33.08
2023-05-02T12:46:19.098Z,33.07
2023-05-02T12:47:19.214Z,33.07
2023-05-02T12:48:19.038Z,33.11
2023-05-02T12:49:19.077Z,33.09
2023-05-02T12:50:19.160Z,33.07
2023-05-02T12:51:19.067Z,33.07
2023-05-02T12:52:19.010Z,33.08